sensor_id;sensor_type;location;lat;lon;timestamp;temperature;humidity
74420;DHT22;62855;50.718;-2.460;2023-07-13T00:02:06;59.00;86.00
74420;DHT22;62855;50.718;-2.460;2023-07-13T00:05:08;59.00;86.00
74420;DHT22;62855;50.718;-2.460;2023-07-13T00:08:06;59.00;86.00
74420;DHT22;62855;50.718;-2.460;2023-07-13T00:11:06;59.18;86.00
74420;DHT22;62855;50.718;-2.460;2023-07-13T00:14:06;59.18;86.00
74420;DHT22;62855;50.718;-2.460;2023-07-13T00:17:06;59.00;86.00
74420;DHT22;62855;50.718;-2.460;2023-07-13T00:20:07;59.00;87.00
74420;DHT22;62855;50.718;-2.460;2023-07-13T00:23:06;59.00;87.00
74420;DHT22;62855;50.718;-2.460;2023-07-13T00:26:07;59.00;87.00
74420;DHT22;62855;50.718;-2.460;2023-07-13T00:29:06;59.00;87.00
74420;DHT22;62855;50.718;-2.460;2023-07-13T00:32:08;59.00;87.00
74420;DHT22;62855;50.718;-2.460;2023-07-13T00:35:07;59.00;87.00
74420;DHT22;62855;50.718;-2.460;2023-07-13T00:38:07;59.00;87.00
74420;DHT22;62855;50.718;-2.460;2023-07-13T00:41:06;58.82;87.00
74420;DHT22;62855;50.718;-2.460;2023-07-13T00:44:10;58.82;87.00
74420;DHT22;62855;50.718;-2.460;2023-07-13T00:47:06;58.82;86.00
74420;DHT22;62855;50.718;-2.460;2023-07-13T00:50:09;58.64;86.00
74420;DHT22;62855;50.718;-2.460;2023-07-13T00:53:07;58.46;86.00
74420;DHT22;62855;50.718;-2.460;2023-07-13T00:56:06;58.46;86.00
74420;DHT22;62855;50.718;-2.460;2023-07-13T00:59:08;58.28;86.00
74420;DHT22;62855;50.718;-2.460;2023-07-13T01:02:07;58.28;86.00
74420;DHT22;62855;50.718;-2.460;2023-07-13T01:05:09;58.10;86.00
74420;DHT22;62855;50.718;-2.460;2023-07-13T01:08:06;58.10;86.00
74420;DHT22;62855;50.718;-2.460;2023-07-13T01:11:07;57.92;85.00
74420;DHT22;62855;50.718;-2.460;2023-07-13T01:14:07;57.92;85.00
74420;DHT22;62855;50.718;-2.460;2023-07-13T01:17:09;57.92;85.00
74420;DHT22;62855;50.718;-2.460;2023-07-13T01:20:07;57.92;85.00
74420;DHT22;62855;50.718;-2.460;2023-07-13T01:23:09;57.74;85.00
74420;DHT22;62855;50.718;-2.460;2023-07-13T01:26:06;57.74;84.00
74420;DHT22;62855;50.718;-2.460;2023-07-13T01:29:06;57.74;84.00
74420;DHT22;62855;50.718;-2.460;2023-07-13T01:32:07;57.74;84.00
74420;DHT22;62855;50.718;-2.460;2023-07-13T01:35:06;57.74;84.00
74420;DHT22;62855;50.718;-2.460;2023-07-13T01:38:06;57.74;84.00
74420;DHT22;62855;50.718;-2.460;2023-07-13T01:41:06;57.74;84.00
74420;DHT22;62855;50.718;-2.460;2023-07-13T01:44:06;57.92;84.00
74420;DHT22;62855;50.718;-2.460;2023-07-13T01:47:06;57.92;84.00
74420;DHT22;62855;50.718;-2.460;2023-07-13T01:50:06;57.92;85.00
74420;DHT22;62855;50.718;-2.460;2023-07-13T01:53:06;57.92;85.00
74420;DHT22;62855;50.718;-2.460;2023-07-13T01:56:06;57.92;85.00
74420;DHT22;62855;50.718;-2.460;2023-07-13T01:59:06;57.92;85.00
74420;DHT22;62855;50.718;-2.460;2023-07-13T02:02:06;57.74;85.00
74420;DHT22;62855;50.718;-2.460;2023-07-13T02:05:07;57.74;85.00
74420;DHT22;62855;50.718;-2.460;2023-07-13T02:08:06;57.74;85.00
74420;DHT22;62855;50.718;-2.460;2023-07-13T02:11:06;57.56;85.00
74420;DHT22;62855;50.718;-2.460;2023-07-13T02:14:06;57.56;85.00
74420;DHT22;62855;50.718;-2.460;2023-07-13T02:17:06;57.56;86.00
74420;DHT22;62855;50.718;-2.460;2023-07-13T02:20:07;57.56;86.00
74420;DHT22;62855;50.718;-2.460;2023-07-13T02:24:07;57.56;86.00
74420;DHT22;62855;50.718;-2.460;2023-07-13T02:27:06;57.38;86.00
74420;DHT22;62855;50.718;-2.460;2023-07-13T02:30:07;57.38;86.00
74420;DHT22;62855;50.718;-2.460;2023-07-13T02:33:06;57.38;86.00
74420;DHT22;62855;50.718;-2.460;2023-07-13T02:36:06;57.38;86.00
74420;DHT22;62855;50.718;-2.460;2023-07-13T02:39:06;57.38;87.00
74420;DHT22;62855;50.718;-2.460;2023-07-13T02:42:07;57.38;87.00
74420;DHT22;62855;50.718;-2.460;2023-07-13T02:45:08;57.38;87.00
74420;DHT22;62855;50.718;-2.460;2023-07-13T02:48:06;57.20;87.00
74420;DHT22;62855;50.718;-2.460;2023-07-13T02:51:07;57.20;87.00
74420;DHT22;62855;50.718;-2.460;2023-07-13T02:54:06;57.20;87.00
74420;DHT22;62855;50.718;-2.460;2023-07-13T02:57:07;57.20;87.00
74420;DHT22;62855;50.718;-2.460;2023-07-13T03:00:07;57.20;87.00
74420;DHT22;62855;50.718;-2.460;2023-07-13T03:03:06;57.02;87.00
74420;DHT22;62855;50.718;-2.460;2023-07-13T03:06:06;57.02;87.00
74420;DHT22;62855;50.718;-2.460;2023-07-13T03:09:07;57.02;87.00
74420;DHT22;62855;50.718;-2.460;2023-07-13T03:12:07;57.02;87.00
74420;DHT22;62855;50.718;-2.460;2023-07-13T03:16:06;57.02;88.00
74420;DHT22;62855;50.718;-2.460;2023-07-13T03:19:06;57.20;88.00
74420;DHT22;62855;50.718;-2.460;2023-07-13T03:22:06;57.20;88.00
74420;DHT22;62855;50.718;-2.460;2023-07-13T03:25:07;57.38;88.00
74420;DHT22;62855;50.718;-2.460;2023-07-13T03:28:07;57.56;89.00
74420;DHT22;62855;50.718;-2.460;2023-07-13T03:31:09;57.56;89.00
74420;DHT22;62855;50.718;-2.460;2023-07-13T03:34:06;57.74;89.00
74420;DHT22;62855;50.718;-2.460;2023-07-13T03:37:06;57.74;89.00
74420;DHT22;62855;50.718;-2.460;2023-07-13T03:40:08;57.92;89.00
74420;DHT22;62855;50.718;-2.460;2023-07-13T03:43:06;57.92;89.00
74420;DHT22;62855;50.718;-2.460;2023-07-13T03:46:06;57.92;88.00
74420;DHT22;62855;50.718;-2.460;2023-07-13T03:49:06;57.92;88.00
74420;DHT22;62855;50.718;-2.460;2023-07-13T03:52:06;57.92;88.00
74420;DHT22;62855;50.718;-2.460;2023-07-13T03:55:16;58.10;88.00
74420;DHT22;62855;50.718;-2.460;2023-07-13T04:01:07;58.10;88.00
74420;DHT22;62855;50.718;-2.460;2023-07-13T04:04:06;58.10;88.00
74420;DHT22;62855;50.718;-2.460;2023-07-13T04:07:07;58.10;88.00
74420;DHT22;62855;50.718;-2.460;2023-07-13T04:10:07;58.10;88.00
74420;DHT22;62855;50.718;-2.460;2023-07-13T04:13:06;58.10;88.00
74420;DHT22;62855;50.718;-2.460;2023-07-13T04:16:06;58.10;88.00
74420;DHT22;62855;50.718;-2.460;2023-07-13T04:19:06;58.10;88.00
74420;DHT22;62855;50.718;-2.460;2023-07-13T04:22:06;58.10;88.00
74420;DHT22;62855;50.718;-2.460;2023-07-13T04:25:07;58.10;88.00
74420;DHT22;62855;50.718;-2.460;2023-07-13T04:28:06;58.28;88.00
74420;DHT22;62855;50.718;-2.460;2023-07-13T04:31:06;58.28;88.00
74420;DHT22;62855;50.718;-2.460;2023-07-13T04:34:06;58.10;87.00
74420;DHT22;62855;50.718;-2.460;2023-07-13T04:37:06;58.10;87.00
74420;DHT22;62855;50.718;-2.460;2023-07-13T04:40:07;58.10;87.00
74420;DHT22;62855;50.718;-2.460;2023-07-13T04:43:06;58.10;87.00
74420;DHT22;62855;50.718;-2.460;2023-07-13T04:46:17;58.10;87.00
74420;DHT22;62855;50.718;-2.460;2023-07-13T04:49:06;58.10;87.00
74420;DHT22;62855;50.718;-2.460;2023-07-13T04:52:07;58.10;87.00
74420;DHT22;62855;50.718;-2.460;2023-07-13T04:55:08;58.10;87.00
74420;DHT22;62855;50.718;-2.460;2023-07-13T04:58:06;58.10;87.00
74420;DHT22;62855;50.718;-2.460;2023-07-13T05:01:06;58.28;87.00
74420;DHT22;62855;50.718;-2.460;2023-07-13T05:04:06;58.28;87.00
74420;DHT22;62855;50.718;-2.460;2023-07-13T05:07:06;58.28;87.00
74420;DHT22;62855;50.718;-2.460;2023-07-13T05:10:08;58.28;87.00
74420;DHT22;62855;50.718;-2.460;2023-07-13T05:13:06;58.28;87.00
74420;DHT22;62855;50.718;-2.460;2023-07-13T05:16:06;58.46;87.00
74420;DHT22;62855;50.718;-2.460;2023-07-13T05:19:06;58.46;87.00
74420;DHT22;62855;50.718;-2.460;2023-07-13T05:22:06;58.46;87.00
74420;DHT22;62855;50.718;-2.460;2023-07-13T05:25:07;58.46;87.00
74420;DHT22;62855;50.718;-2.460;2023-07-13T05:28:06;58.46;88.00
74420;DHT22;62855;50.718;-2.460;2023-07-13T05:31:07;58.64;88.00
74420;DHT22;62855;50.718;-2.460;2023-07-13T05:34:06;58.64;88.00
74420;DHT22;62855;50.718;-2.460;2023-07-13T05:37:07;58.82;88.00
74420;DHT22;62855;50.718;-2.460;2023-07-13T05:40:07;58.82;88.00
74420;DHT22;62855;50.718;-2.460;2023-07-13T05:43:06;58.82;87.00
74420;DHT22;62855;50.718;-2.460;2023-07-13T05:46:06;58.82;87.00
74420;DHT22;62855;50.718;-2.460;2023-07-13T05:49:06;59.00;87.00
74420;DHT22;62855;50.718;-2.460;2023-07-13T05:52:07;59.00;86.00
74420;DHT22;62855;50.718;-2.460;2023-07-13T05:55:07;59.00;86.00
74420;DHT22;62855;50.718;-2.460;2023-07-13T05:58:06;59.18;86.00
74420;DHT22;62855;50.718;-2.460;2023-07-13T06:01:09;59.18;85.00
74420;DHT22;62855;50.718;-2.460;2023-07-13T06:04:06;59.36;85.00
74420;DHT22;62855;50.718;-2.460;2023-07-13T06:07:06;59.36;84.00
74420;DHT22;62855;50.718;-2.460;2023-07-13T06:10:06;59.36;84.00
74420;DHT22;62855;50.718;-2.460;2023-07-13T06:13:06;59.54;83.00
74420;DHT22;62855;50.718;-2.460;2023-07-13T06:16:07;59.54;83.00
74420;DHT22;62855;50.718;-2.460;2023-07-13T06:19:06;59.72;83.00
74420;DHT22;62855;50.718;-2.460;2023-07-13T06:22:06;59.72;83.00
74420;DHT22;62855;50.718;-2.460;2023-07-13T06:25:07;59.72;83.00
74420;DHT22;62855;50.718;-2.460;2023-07-13T06:30:07;59.72;82.00
74420;DHT22;62855;50.718;-2.460;2023-07-13T06:33:06;59.72;82.00
74420;DHT22;62855;50.718;-2.460;2023-07-13T06:36:36;59.72;82.00
74420;DHT22;62855;50.718;-2.460;2023-07-13T06:39:07;59.72;82.00
74420;DHT22;62855;50.718;-2.460;2023-07-13T06:42:07;59.72;82.00
74420;DHT22;62855;50.718;-2.460;2023-07-13T06:45:07;59.54;81.00
74420;DHT22;62855;50.718;-2.460;2023-07-13T06:48:06;59.36;81.00
74420;DHT22;62855;50.718;-2.460;2023-07-13T06:51:06;59.36;80.00
74420;DHT22;62855;50.718;-2.460;2023-07-13T06:54:07;59.54;80.00
74420;DHT22;62855;50.718;-2.460;2023-07-13T06:57:06;59.54;78.00
74420;DHT22;62855;50.718;-2.460;2023-07-13T07:00:07;59.54;77.00
74420;DHT22;62855;50.718;-2.460;2023-07-13T07:03:06;59.72;77.00
74420;DHT22;62855;50.718;-2.460;2023-07-13T07:06:13;59.72;78.00
74420;DHT22;62855;50.718;-2.460;2023-07-13T07:09:06;59.72;78.00
74420;DHT22;62855;50.718;-2.460;2023-07-13T07:12:07;59.90;78.00
74420;DHT22;62855;50.718;-2.460;2023-07-13T07:15:06;59.90;78.00
74420;DHT22;62855;50.718;-2.460;2023-07-13T07:18:06;60.08;79.00
74420;DHT22;62855;50.718;-2.460;2023-07-13T07:21:06;60.08;78.00
74420;DHT22;62855;50.718;-2.460;2023-07-13T07:24:06;60.26;78.00
74420;DHT22;62855;50.718;-2.460;2023-07-13T07:27:06;60.26;78.00
74420;DHT22;62855;50.718;-2.460;2023-07-13T07:30:07;60.26;78.00
74420;DHT22;62855;50.718;-2.460;2023-07-13T07:33:06;60.44;78.00
74420;DHT22;62855;50.718;-2.460;2023-07-13T07:36:06;60.44;78.00
74420;DHT22;62855;50.718;-2.460;2023-07-13T07:39:06;60.44;78.00
74420;DHT22;62855;50.718;-2.460;2023-07-13T07:42:07;60.44;78.00
74420;DHT22;62855;50.718;-2.460;2023-07-13T07:45:07;60.62;78.00
74420;DHT22;62855;50.718;-2.460;2023-07-13T07:48:06;60.62;77.00
74420;DHT22;62855;50.718;-2.460;2023-07-13T07:51:06;60.62;77.00
74420;DHT22;62855;50.718;-2.460;2023-07-13T07:54:06;60.80;77.00
74420;DHT22;62855;50.718;-2.460;2023-07-13T07:57:07;60.80;78.00
74420;DHT22;62855;50.718;-2.460;2023-07-13T08:00:08;60.62;78.00
74420;DHT22;62855;50.718;-2.460;2023-07-13T08:03:06;60.80;78.00
74420;DHT22;62855;50.718;-2.460;2023-07-13T08:06:06;60.98;77.00
74420;DHT22;62855;50.718;-2.460;2023-07-13T08:09:06;60.98;77.00
74420;DHT22;62855;50.718;-2.460;2023-07-13T08:12:07;61.16;78.00
74420;DHT22;62855;50.718;-2.460;2023-07-13T08:15:16;61.34;78.00
74420;DHT22;62855;50.718;-2.460;2023-07-13T08:18:06;61.70;78.00
74420;DHT22;62855;50.718;-2.460;2023-07-13T08:21:07;62.06;78.00
74420;DHT22;62855;50.718;-2.460;2023-07-13T08:24:06;62.24;76.00
74420;DHT22;62855;50.718;-2.460;2023-07-13T08:27:06;62.60;72.00
74420;DHT22;62855;50.718;-2.460;2023-07-13T08:30:07;62.96;71.00
74420;DHT22;62855;50.718;-2.460;2023-07-13T08:33:06;62.96;70.00
74420;DHT22;62855;50.718;-2.460;2023-07-13T08:36:06;63.14;70.00
74420;DHT22;62855;50.718;-2.460;2023-07-13T08:39:06;63.50;70.00
74420;DHT22;62855;50.718;-2.460;2023-07-13T08:42:12;63.86;70.00
74420;DHT22;62855;50.718;-2.460;2023-07-13T08:45:11;64.04;70.00
74420;DHT22;62855;50.718;-2.460;2023-07-13T08:48:11;64.40;69.00
74420;DHT22;62855;50.718;-2.460;2023-07-13T08:51:13;64.76;69.00
74420;DHT22;62855;50.718;-2.460;2023-07-13T08:54:16;64.76;66.00
74420;DHT22;62855;50.718;-2.460;2023-07-13T08:57:13;64.58;65.00
74420;DHT22;62855;50.718;-2.460;2023-07-13T09:00:09;64.40;64.00
74420;DHT22;62855;50.718;-2.460;2023-07-13T09:03:15;64.76;65.00
74420;DHT22;62855;50.718;-2.460;2023-07-13T09:06:06;65.12;66.00
74420;DHT22;62855;50.718;-2.460;2023-07-13T09:09:10;64.94;67.00
74420;DHT22;62855;50.718;-2.460;2023-07-13T09:12:12;64.58;68.00
74420;DHT22;62855;50.718;-2.460;2023-07-13T09:15:18;64.76;68.00
74420;DHT22;62855;50.718;-2.460;2023-07-13T09:18:10;64.76;67.00
74420;DHT22;62855;50.718;-2.460;2023-07-13T09:21:10;64.58;66.00
74420;DHT22;62855;50.718;-2.460;2023-07-13T09:23:21;64.58;66.00
74420;DHT22;62855;50.718;-2.460;2023-07-13T09:26:21;64.40;66.00
74420;DHT22;62855;50.718;-2.460;2023-07-13T09:29:13;64.40;66.00
74420;DHT22;62855;50.718;-2.460;2023-07-13T09:32:09;64.76;65.00
74420;DHT22;62855;50.718;-2.460;2023-07-13T09:35:11;65.12;65.00
74420;DHT22;62855;50.718;-2.460;2023-07-13T09:38:12;65.66;65.00
74420;DHT22;62855;50.718;-2.460;2023-07-13T09:41:17;66.20;65.00
74420;DHT22;62855;50.718;-2.460;2023-07-13T09:44:08;66.92;66.00
74420;DHT22;62855;50.718;-2.460;2023-07-13T09:47:15;67.82;65.00
74420;DHT22;62855;50.718;-2.460;2023-07-13T09:50:08;67.64;65.00
74420;DHT22;62855;50.718;-2.460;2023-07-13T09:53:13;67.64;65.00
74420;DHT22;62855;50.718;-2.460;2023-07-13T09:56:19;67.46;65.00
74420;DHT22;62855;50.718;-2.460;2023-07-13T10:05:11;68.00;64.00
74420;DHT22;62855;50.718;-2.460;2023-07-13T10:08:16;68.00;64.00
74420;DHT22;62855;50.718;-2.460;2023-07-13T10:11:11;67.82;64.00
74420;DHT22;62855;50.718;-2.460;2023-07-13T10:14:13;67.46;65.00
74420;DHT22;62855;50.718;-2.460;2023-07-13T10:17:10;67.10;66.00
74420;DHT22;62855;50.718;-2.460;2023-07-13T10:20:06;67.10;66.00
74420;DHT22;62855;50.718;-2.460;2023-07-13T10:23:13;67.10;67.00
74420;DHT22;62855;50.718;-2.460;2023-07-13T10:26:12;66.92;67.00
74420;DHT22;62855;50.718;-2.460;2023-07-13T10:29:11;66.74;68.00
74420;DHT22;62855;50.718;-2.460;2023-07-13T10:32:09;66.74;68.00
74420;DHT22;62855;50.718;-2.460;2023-07-13T10:35:09;66.56;68.00
74420;DHT22;62855;50.718;-2.460;2023-07-13T10:38:11;66.38;69.00
74420;DHT22;62855;50.718;-2.460;2023-07-13T10:41:09;66.56;70.00
74420;DHT22;62855;50.718;-2.460;2023-07-13T10:44:15;66.74;70.00
74420;DHT22;62855;50.718;-2.460;2023-07-13T10:47:08;66.92;69.00
74420;DHT22;62855;50.718;-2.460;2023-07-13T10:50:15;66.92;70.00
74420;DHT22;62855;50.718;-2.460;2023-07-13T10:53:18;67.10;69.00
74420;DHT22;62855;50.718;-2.460;2023-07-13T10:59:12;67.28;67.00
74420;DHT22;62855;50.718;-2.460;2023-07-13T11:02:11;67.10;66.00
74420;DHT22;62855;50.718;-2.460;2023-07-13T11:05:17;67.10;67.00
74420;DHT22;62855;50.718;-2.460;2023-07-13T11:08:16;67.10;67.00
74420;DHT22;62855;50.718;-2.460;2023-07-13T11:22:13;67.64;67.00
74420;DHT22;62855;50.718;-2.460;2023-07-13T11:23:09;67.64;67.00
74420;DHT22;62855;50.718;-2.460;2023-07-13T11:29:09;67.46;66.00
74420;DHT22;62855;50.718;-2.460;2023-07-13T11:35:12;67.10;66.00
74420;DHT22;62855;50.718;-2.460;2023-07-13T11:38:13;67.10;68.00
74420;DHT22;62855;50.718;-2.460;2023-07-13T11:41:14;67.28;68.00
74420;DHT22;62855;50.718;-2.460;2023-07-13T11:44:12;67.46;69.00
74420;DHT22;62855;50.718;-2.460;2023-07-13T11:47:10;67.46;67.00
74420;DHT22;62855;50.718;-2.460;2023-07-13T11:53:09;67.10;67.00
74420;DHT22;62855;50.718;-2.460;2023-07-13T11:56:07;67.10;68.00
74420;DHT22;62855;50.718;-2.460;2023-07-13T11:59:11;67.28;69.00
74420;DHT22;62855;50.718;-2.460;2023-07-13T12:02:14;67.28;67.00
74420;DHT22;62855;50.718;-2.460;2023-07-13T12:05:09;67.10;67.00
74420;DHT22;62855;50.718;-2.460;2023-07-13T12:08:11;67.10;67.00
74420;DHT22;62855;50.718;-2.460;2023-07-13T12:11:13;67.10;67.00
74420;DHT22;62855;50.718;-2.460;2023-07-13T12:14:13;67.46;67.00
74420;DHT22;62855;50.718;-2.460;2023-07-13T12:17:09;67.64;66.00
74420;DHT22;62855;50.718;-2.460;2023-07-13T12:20:17;67.82;66.00
74420;DHT22;62855;50.718;-2.460;2023-07-13T12:23:15;68.18;66.00
74420;DHT22;62855;50.718;-2.460;2023-07-13T12:26:07;68.72;66.00
74420;DHT22;62855;50.718;-2.460;2023-07-13T12:29:07;68.90;64.00
74420;DHT22;62855;50.718;-2.460;2023-07-13T12:32:09;68.72;63.00
74420;DHT22;62855;50.718;-2.460;2023-07-13T12:35:13;68.72;63.00
74420;DHT22;62855;50.718;-2.460;2023-07-13T12:38:09;68.54;63.00
74420;DHT22;62855;50.718;-2.460;2023-07-13T12:41:08;68.54;63.00
74420;DHT22;62855;50.718;-2.460;2023-07-13T12:44:10;68.54;63.00
74420;DHT22;62855;50.718;-2.460;2023-07-13T12:47:09;68.54;64.00
74420;DHT22;62855;50.718;-2.460;2023-07-13T12:50:14;68.54;63.00
74420;DHT22;62855;50.718;-2.460;2023-07-13T12:53:06;68.54;64.00
74420;DHT22;62855;50.718;-2.460;2023-07-13T12:56:08;68.54;63.00
74420;DHT22;62855;50.718;-2.460;2023-07-13T12:59:08;68.72;63.00
74420;DHT22;62855;50.718;-2.460;2023-07-13T13:02:26;68.72;63.00
74420;DHT22;62855;50.718;-2.460;2023-07-13T13:05:06;69.08;63.00
74420;DHT22;62855;50.718;-2.460;2023-07-13T13:08:08;69.26;63.00
74420;DHT22;62855;50.718;-2.460;2023-07-13T13:11:06;69.44;62.00
74420;DHT22;62855;50.718;-2.460;2023-07-13T13:14:07;69.80;62.00
74420;DHT22;62855;50.718;-2.460;2023-07-13T13:17:16;69.80;61.00
74420;DHT22;62855;50.718;-2.460;2023-07-13T13:20:14;70.16;61.00
74420;DHT22;62855;50.718;-2.460;2023-07-13T13:23:09;70.34;62.00
74420;DHT22;62855;50.718;-2.460;2023-07-13T13:26:10;70.70;61.00
74420;DHT22;62855;50.718;-2.460;2023-07-13T13:29:11;70.52;60.00
74420;DHT22;62855;50.718;-2.460;2023-07-13T13:32:09;70.34;61.00
74420;DHT22;62855;50.718;-2.460;2023-07-13T13:35:12;70.16;61.00
74420;DHT22;62855;50.718;-2.460;2023-07-13T13:38:11;70.16;61.00
74420;DHT22;62855;50.718;-2.460;2023-07-13T13:41:08;69.98;60.00
74420;DHT22;62855;50.718;-2.460;2023-07-13T13:44:09;69.80;60.00
74420;DHT22;62855;50.718;-2.460;2023-07-13T13:47:28;69.44;60.00
74420;DHT22;62855;50.718;-2.460;2023-07-13T13:50:12;69.44;60.00
74420;DHT22;62855;50.718;-2.460;2023-07-13T13:53:09;69.62;60.00
74420;DHT22;62855;50.718;-2.460;2023-07-13T13:56:06;69.80;61.00
74420;DHT22;62855;50.718;-2.460;2023-07-13T13:59:06;69.80;60.00
74420;DHT22;62855;50.718;-2.460;2023-07-13T14:02:20;69.80;61.00
74420;DHT22;62855;50.718;-2.460;2023-07-13T14:05:12;69.80;61.00
74420;DHT22;62855;50.718;-2.460;2023-07-13T14:08:11;70.16;62.00
74420;DHT22;62855;50.718;-2.460;2023-07-13T14:11:09;70.52;60.00
74420;DHT22;62855;50.718;-2.460;2023-07-13T14:14:12;70.70;60.00
74420;DHT22;62855;50.718;-2.460;2023-07-13T14:17:16;70.70;58.00
74420;DHT22;62855;50.718;-2.460;2023-07-13T14:20:10;70.70;58.00
74420;DHT22;62855;50.718;-2.460;2023-07-13T14:23:06;70.52;57.00
74420;DHT22;62855;50.718;-2.460;2023-07-13T14:26:11;70.34;57.00
74420;DHT22;62855;50.718;-2.460;2023-07-13T14:29:12;70.34;59.00
74420;DHT22;62855;50.718;-2.460;2023-07-13T14:32:09;70.34;59.00
74420;DHT22;62855;50.718;-2.460;2023-07-13T14:35:08;70.52;59.00
74420;DHT22;62855;50.718;-2.460;2023-07-13T14:38:09;70.52;59.00
74420;DHT22;62855;50.718;-2.460;2023-07-13T14:41:08;70.52;60.00
74420;DHT22;62855;50.718;-2.460;2023-07-13T14:44:11;70.88;60.00
74420;DHT22;62855;50.718;-2.460;2023-07-13T14:47:07;70.88;59.00
74420;DHT22;62855;50.718;-2.460;2023-07-13T14:50:12;71.06;60.00
74420;DHT22;62855;50.718;-2.460;2023-07-13T14:53:09;71.24;59.00
74420;DHT22;62855;50.718;-2.460;2023-07-13T14:56:10;71.42;54.00
74420;DHT22;62855;50.718;-2.460;2023-07-13T14:59:06;71.42;54.00
74420;DHT22;62855;50.718;-2.460;2023-07-13T15:02:14;71.24;58.00
74420;DHT22;62855;50.718;-2.460;2023-07-13T15:05:13;71.24;59.00
74420;DHT22;62855;50.718;-2.460;2023-07-13T15:08:09;71.24;59.00
74420;DHT22;62855;50.718;-2.460;2023-07-13T15:11:06;71.24;59.00
74420;DHT22;62855;50.718;-2.460;2023-07-13T15:14:06;71.06;59.00
74420;DHT22;62855;50.718;-2.460;2023-07-13T15:17:18;70.88;59.00
74420;DHT22;62855;50.718;-2.460;2023-07-13T15:20:16;70.70;57.00
74420;DHT22;62855;50.718;-2.460;2023-07-13T15:23:09;70.16;56.00
74420;DHT22;62855;50.718;-2.460;2023-07-13T15:26:09;69.80;57.00
74420;DHT22;62855;50.718;-2.460;2023-07-13T15:29:06;69.26;58.00
74420;DHT22;62855;50.718;-2.460;2023-07-13T15:32:11;68.72;57.00
74420;DHT22;62855;50.718;-2.460;2023-07-13T15:35:13;68.18;58.00
74420;DHT22;62855;50.718;-2.460;2023-07-13T15:38:13;68.18;58.00
74420;DHT22;62855;50.718;-2.460;2023-07-13T15:41:14;68.18;58.00
74420;DHT22;62855;50.718;-2.460;2023-07-13T15:47:10;68.18;60.00
74420;DHT22;62855;50.718;-2.460;2023-07-13T15:50:12;68.18;60.00
74420;DHT22;62855;50.718;-2.460;2023-07-13T15:53:09;68.18;61.00
74420;DHT22;62855;50.718;-2.460;2023-07-13T15:56:17;68.36;61.00
74420;DHT22;62855;50.718;-2.460;2023-07-13T15:59:08;68.72;61.00
74420;DHT22;62855;50.718;-2.460;2023-07-13T16:02:12;69.26;61.00
74420;DHT22;62855;50.718;-2.460;2023-07-13T16:05:06;69.44;60.00
74420;DHT22;62855;50.718;-2.460;2023-07-13T16:08:16;69.08;61.00
74420;DHT22;62855;50.718;-2.460;2023-07-13T16:11:12;68.72;61.00
74420;DHT22;62855;50.718;-2.460;2023-07-13T16:14:06;68.18;61.00
74420;DHT22;62855;50.718;-2.460;2023-07-13T16:17:09;67.82;61.00
74420;DHT22;62855;50.718;-2.460;2023-07-13T16:20:07;67.82;61.00
74420;DHT22;62855;50.718;-2.460;2023-07-13T16:23:08;67.64;62.00
74420;DHT22;62855;50.718;-2.460;2023-07-13T16:26:26;67.28;63.00
74420;DHT22;62855;50.718;-2.460;2023-07-13T16:29:11;66.92;63.00
74420;DHT22;62855;50.718;-2.460;2023-07-13T16:32:09;66.92;64.00
74420;DHT22;62855;50.718;-2.460;2023-07-13T16:35:08;66.56;64.00
74420;DHT22;62855;50.718;-2.460;2023-07-13T16:38:14;66.38;64.00
74420;DHT22;62855;50.718;-2.460;2023-07-13T16:41:06;66.38;65.00
74420;DHT22;62855;50.718;-2.460;2023-07-13T16:44:10;66.38;65.00
74420;DHT22;62855;50.718;-2.460;2023-07-13T16:47:11;66.38;65.00
74420;DHT22;62855;50.718;-2.460;2023-07-13T16:50:14;66.56;66.00
74420;DHT22;62855;50.718;-2.460;2023-07-13T16:53:12;66.92;66.00
74420;DHT22;62855;50.718;-2.460;2023-07-13T16:56:13;67.10;66.00
74420;DHT22;62855;50.718;-2.460;2023-07-13T16:59:12;67.10;66.00
74420;DHT22;62855;50.718;-2.460;2023-07-13T17:05:09;67.28;66.00
74420;DHT22;62855;50.718;-2.460;2023-07-13T17:08:13;67.28;65.00
74420;DHT22;62855;50.718;-2.460;2023-07-13T17:11:06;67.10;65.00
74420;DHT22;62855;50.718;-2.460;2023-07-13T17:14:12;66.92;65.00
74420;DHT22;62855;50.718;-2.460;2023-07-13T17:17:14;66.56;65.00
74420;DHT22;62855;50.718;-2.460;2023-07-13T17:20:14;66.20;66.00
74420;DHT22;62855;50.718;-2.460;2023-07-13T17:23:11;66.20;66.00
74420;DHT22;62855;50.718;-2.460;2023-07-13T17:26:06;66.20;67.00
74420;DHT22;62855;50.718;-2.460;2023-07-13T17:29:06;66.20;67.00
74420;DHT22;62855;50.718;-2.460;2023-07-13T17:32:08;66.02;67.00
74420;DHT22;62855;50.718;-2.460;2023-07-13T17:35:15;65.84;66.00
74420;DHT22;62855;50.718;-2.460;2023-07-13T17:38:06;65.66;67.00
74420;DHT22;62855;50.718;-2.460;2023-07-13T17:41:06;65.48;67.00
74420;DHT22;62855;50.718;-2.460;2023-07-13T17:44:06;65.30;68.00
74420;DHT22;62855;50.718;-2.460;2023-07-13T17:47:16;65.12;68.00
74420;DHT22;62855;50.718;-2.460;2023-07-13T17:50:11;64.94;69.00
74420;DHT22;62855;50.718;-2.460;2023-07-13T17:53:08;64.94;69.00
74420;DHT22;62855;50.718;-2.460;2023-07-13T17:56:06;64.76;69.00
74420;DHT22;62855;50.718;-2.460;2023-07-13T17:59:06;64.76;69.00
74420;DHT22;62855;50.718;-2.460;2023-07-13T18:02:12;64.76;70.00
74420;DHT22;62855;50.718;-2.460;2023-07-13T18:05:12;64.58;70.00
74420;DHT22;62855;50.718;-2.460;2023-07-13T18:08:17;64.40;70.00
74420;DHT22;62855;50.718;-2.460;2023-07-13T18:11:09;64.22;70.00
74420;DHT22;62855;50.718;-2.460;2023-07-13T18:14:06;64.22;71.00
74420;DHT22;62855;50.718;-2.460;2023-07-13T18:17:11;64.22;71.00
74420;DHT22;62855;50.718;-2.460;2023-07-13T18:20:08;64.04;71.00
74420;DHT22;62855;50.718;-2.460;2023-07-13T18:23:14;64.04;71.00
74420;DHT22;62855;50.718;-2.460;2023-07-13T18:26:09;63.86;71.00
74420;DHT22;62855;50.718;-2.460;2023-07-13T18:29:07;63.68;71.00
74420;DHT22;62855;50.718;-2.460;2023-07-13T18:32:09;63.68;72.00
74420;DHT22;62855;50.718;-2.460;2023-07-13T18:35:12;63.50;72.00
74420;DHT22;62855;50.718;-2.460;2023-07-13T18:38:15;63.50;72.00
74420;DHT22;62855;50.718;-2.460;2023-07-13T18:41:09;63.50;72.00
74420;DHT22;62855;50.718;-2.460;2023-07-13T18:44:06;63.32;73.00
74420;DHT22;62855;50.718;-2.460;2023-07-13T18:47:08;63.32;73.00
74420;DHT22;62855;50.718;-2.460;2023-07-13T18:50:13;63.32;73.00
74420;DHT22;62855;50.718;-2.460;2023-07-13T18:53:11;63.32;73.00
74420;DHT22;62855;50.718;-2.460;2023-07-13T18:56:07;63.50;73.00
74420;DHT22;62855;50.718;-2.460;2023-07-13T18:59:06;63.50;73.00
74420;DHT22;62855;50.718;-2.460;2023-07-13T19:02:10;63.50;72.00
74420;DHT22;62855;50.718;-2.460;2023-07-13T19:05:13;63.50;73.00
74420;DHT22;62855;50.718;-2.460;2023-07-13T19:08:11;63.50;73.00
74420;DHT22;62855;50.718;-2.460;2023-07-13T19:11:11;63.32;73.00
74420;DHT22;62855;50.718;-2.460;2023-07-13T19:14:09;63.32;73.00
74420;DHT22;62855;50.718;-2.460;2023-07-13T19:17:09;63.14;73.00